Time;durP1;ratioP1;P1;durP2;ratioP2;P2;SDS_P1;SDS_P2;PMS_P1;PMS_P2;Temp;Humidity;BMP_temperature;BMP_pressure;BME280_temperature;BME280_humidity;BME280_pressure;Samples;Min_cycle;Max_cycle;Signal;HPM_P1;HPM_P2
2022/07/29 00:01:22;;;;;;;19.70;10.47;;;18.30;99.90;;;;;;5112047;28;20232;-63
2022/07/29 00:03:49;;;;;;;32.37;18.20;;;18.30;99.90;;;;;;5112165;28;20597;-64
2022/07/29 00:06:16;;;;;;;38.77;22.63;;;18.30;99.90;;;;;;5111946;28;20203;-65
2022/07/29 00:08:42;;;;;;;48.87;30.33;;;18.20;99.90;;;;;;5112059;28;20862;-64
2022/07/29 00:11:09;;;;;;;53.20;35.33;;;18.20;99.90;;;;;;5112316;28;20226;-63
2022/07/29 00:13:36;;;;;;;65.77;37.37;;;18.10;99.90;;;;;;5112156;28;20195;-64
2022/07/29 00:16:04;;;;;;;50.43;34.00;;;18.10;99.90;;;;;;5111761;28;20203;-64
2022/07/29 00:18:31;;;;;;;47.70;30.93;;;18.10;99.90;;;;;;5111992;28;20211;-64
2022/07/29 00:20:58;;;;;;;43.40;25.50;;;18.00;99.90;;;;;;5111947;28;20232;-63
2022/07/29 00:23:25;;;;;;;41.07;25.97;;;18.00;99.90;;;;;;5111816;28;20203;-64
2022/07/29 00:25:51;;;;;;;36.20;22.00;;;18.00;99.90;;;;;;5111989;28;20204;-65
2022/07/29 00:28:18;;;;;;;39.23;21.13;;;18.00;99.90;;;;;;5111756;28;20733;-63
2022/07/29 00:30:45;;;;;;;35.60;22.47;;;18.00;99.90;;;;;;5111961;28;20224;-63
2022/07/29 00:33:13;;;;;;;32.83;20.60;;;18.00;99.90;;;;;;5111898;28;20689;-64
2022/07/29 00:35:44;;;;;;;28.37;16.27;;;18.00;99.90;;;;;;5111668;28;20199;-65
2022/07/29 00:38:12;;;;;;;30.53;17.30;;;17.90;99.90;;;;;;5111596;28;20204;-64
2022/07/29 00:40:38;;;;;;;26.40;14.97;;;17.90;99.90;;;;;;5111796;28;20223;-63
2022/07/29 00:43:05;;;;;;;20.37;11.93;;;17.90;99.90;;;;;;5113804;28;20674;-63
2022/07/29 00:45:32;;;;;;;17.67;10.53;;;17.90;99.90;;;;;;5115633;28;20231;-64
2022/07/29 00:47:58;;;;;;;14.60;9.70;;;17.80;99.90;;;;;;5115079;28;20207;-64
2022/07/29 00:50:27;;;;;;;11.27;8.10;;;17.80;99.90;;;;;;5115335;28;20582;-63
2022/07/29 00:52:54;;;;;;;8.77;5.60;;;17.80;99.90;;;;;;5115802;28;20256;-63
2022/07/29 00:55:21;;;;;;;8.10;3.87;;;17.80;99.90;;;;;;5115597;28;20253;-63
2022/07/29 00:57:48;;;;;;;18.00;3.80;;;17.70;99.90;;;;;;5115095;27;20203;-65
2022/07/29 01:00:18;;;;;;;4.77;2.87;;;17.70;99.90;;;;;;5115247;28;20227;-63
2022/07/29 01:02:47;;;;;;;4.87;2.00;;;17.60;99.90;;;;;;5115292;28;20200;-64
2022/07/29 01:05:13;;;;;;;4.47;2.30;;;17.60;99.90;;;;;;5115376;28;20227;-63
2022/07/29 01:07:42;;;;;;;7.60;2.13;;;17.60;99.90;;;;;;5114994;28;20249;-63
2022/07/29 01:10:13;;;;;;;4.37;1.83;;;17.60;99.90;;;;;;5115224;28;20231;-63
2022/07/29 01:12:40;;;;;;;4.00;1.97;;;17.50;99.90;;;;;;5115083;28;20294;-63
2022/07/29 01:15:09;;;;;;;3.10;1.40;;;17.50;99.90;;;;;;5114349;28;20625;-64
2022/07/29 01:17:44;;;;;;;8.17;1.90;;;17.40;99.90;;;;;;5114651;28;20727;-64
2022/07/29 01:20:18;;;;;;;6.27;1.80;;;17.30;99.90;;;;;;5114860;28;20652;-63
2022/07/29 01:23:09;;;;;;;5.03;1.80;;;17.30;99.90;;;;;;5114984;28;20208;-64
2022/07/29 01:26:04;;;;;;;3.70;1.50;;;17.30;99.90;;;;;;5114873;28;20766;-63
2022/07/29 01:29:02;;;;;;;4.60;1.73;;;17.40;99.90;;;;;;5114612;28;20666;-64
2022/07/29 01:31:33;;;;;;;5.37;1.90;;;17.40;99.90;;;;;;5111177;28;20226;-64
2022/07/29 01:34:09;;;;;;;4.27;1.60;;;17.30;99.90;;;;;;5114687;28;20208;-64
2022/07/29 01:36:38;;;;;;;5.63;1.90;;;17.30;99.90;;;;;;5114314;28;20272;-64
2022/07/29 01:39:09;;;;;;;6.87;1.77;;;17.20;99.90;;;;;;5114440;28;20203;-64
2022/07/29 01:41:39;;;;;;;3.97;1.60;;;17.20;99.90;;;;;;5114750;28;20280;-64
2022/07/29 01:44:14;;;;;;;2.83;1.97;;;17.20;99.90;;;;;;5114443;28;20220;-64
2022/07/29 01:46:51;;;;;;;4.03;1.67;;;17.30;99.90;;;;;;5114332;28;20245;-64
2022/07/29 01:49:21;;;;;;;4.07;1.73;;;17.30;99.90;;;;;;5114491;28;20207;-64
2022/07/29 01:51:51;;;;;;;2.43;1.60;;;17.20;99.90;;;;;;5114870;28;20214;-64
2022/07/29 01:54:25;;;;;;;3.67;1.90;;;17.10;99.90;;;;;;5113573;28;20203;-64
2022/07/29 01:56:56;;;;;;;2.13;1.47;;;17.00;99.90;;;;;;5114001;28;20294;-64
2022/07/29 01:59:25;;;;;;;3.97;1.67;;;17.00;99.90;;;;;;5114403;28;20263;-63
2022/07/29 02:01:54;;;;;;;3.73;1.50;;;17.00;99.90;;;;;;5114404;28;20207;-63
2022/07/29 02:04:22;;;;;;;5.20;1.57;;;16.90;99.90;;;;;;5114208;28;20634;-64
2022/07/29 02:06:51;;;;;;;5.30;1.60;;;16.90;99.90;;;;;;5113886;28;20614;-64
2022/07/29 02:09:21;;;;;;;5.97;1.90;;;16.90;99.90;;;;;;5113881;28;20257;-64
2022/07/29 02:11:51;;;;;;;5.23;1.70;;;16.90;99.90;;;;;;5113891;28;20730;-63
2022/07/29 02:14:20;;;;;;;4.27;1.80;;;16.90;99.90;;;;;;5114136;28;20318;-64
2022/07/29 02:16:49;;;;;;;14.47;1.67;;;16.90;99.90;;;;;;5113533;27;20204;-64
2022/07/29 02:19:19;;;;;;;2.97;1.60;;;16.90;99.90;;;;;;5113856;28;20213;-64
2022/07/29 02:21:47;;;;;;;2.37;1.43;;;16.90;99.90;;;;;;5113928;28;20599;-63
2022/07/29 02:24:14;;;;;;;5.47;1.67;;;16.90;99.90;;;;;;5113699;28;20211;-64
2022/07/29 02:26:43;;;;;;;4.90;1.50;;;16.90;99.90;;;;;;5113544;28;20203;-63
2022/07/29 02:29:11;;;;;;;5.83;1.80;;;16.80;99.90;;;;;;5113597;28;20249;-64
2022/07/29 02:31:40;;;;;;;3.43;1.70;;;16.80;99.90;;;;;;5113673;28;20215;-64
2022/07/29 02:34:10;;;;;;;4.67;1.40;;;16.70;99.90;;;;;;5113382;28;20211;-63
2022/07/29 02:36:38;;;;;;;2.43;1.77;;;16.70;99.90;;;;;;5112952;28;20294;-63
2022/07/29 02:39:08;;;;;;;3.00;1.37;;;16.80;99.90;;;;;;5113507;28;20666;-64
2022/07/29 02:41:42;;;;;;;6.67;1.73;;;16.80;99.90;;;;;;5113335;28;20643;-64
2022/07/29 02:44:11;;;;;;;4.43;1.63;;;16.70;99.90;;;;;;5112278;28;20203;-63
2022/07/29 02:46:44;;;;;;;3.27;1.53;;;16.70;99.90;;;;;;5113172;28;20302;-64
2022/07/29 02:49:17;;;;;;;5.53;1.70;;;16.70;99.90;;;;;;5113225;27;20223;-64
2022/07/29 02:51:47;;;;;;;3.00;1.60;;;16.70;99.90;;;;;;5113494;28;20203;-63
2022/07/29 02:54:24;;;;;;;4.20;2.07;;;16.80;99.90;;;;;;5115593;28;20232;-64
2022/07/29 02:56:55;;;;;;;1.70;1.50;;;16.80;99.90;;;;;;5118190;28;20200;-64
2022/07/29 02:59:27;;;;;;;3.20;1.80;;;16.80;99.90;;;;;;5117593;28;20204;-64
2022/07/29 03:01:56;;;;;;;4.23;1.70;;;16.80;99.90;;;;;;5113425;28;20257;-64
2022/07/29 03:04:25;;;;;;;3.63;1.53;;;16.80;99.90;;;;;;5113057;28;20211;-64
2022/07/29 03:06:54;;;;;;;4.53;2.00;;;16.80;99.90;;;;;;5112838;28;20238;-64
2022/07/29 03:09:22;;;;;;;3.77;1.60;;;16.80;99.90;;;;;;5112835;28;20200;-64
2022/07/29 03:11:50;;;;;;;3.80;1.80;;;16.70;99.90;;;;;;5112897;28;20272;-64
2022/07/29 03:14:18;;;;;;;2.47;1.60;;;16.70;99.90;;;;;;5112965;28;20207;-64
2022/07/29 03:16:45;;;;;;;4.37;1.70;;;16.70;99.90;;;;;;5112616;28;20232;-64
2022/07/29 03:19:12;;;;;;;5.10;1.87;;;16.70;99.90;;;;;;5112632;28;20219;-64
2022/07/29 03:21:40;;;;;;;9.90;1.80;;;16.70;99.90;;;;;;5112860;27;20223;-64
2022/07/29 03:24:07;;;;;;;5.47;1.97;;;16.70;99.90;;;;;;5112684;28;20207;-64
2022/07/29 03:26:34;;;;;;;8.37;2.00;;;16.70;99.90;;;;;;5112267;28;20257;-64
2022/07/29 03:29:01;;;;;;;4.97;2.00;;;16.70;99.90;;;;;;5112797;28;20199;-64
2022/07/29 03:31:27;;;;;;;7.47;1.80;;;16.80;99.90;;;;;;5112640;28;20272;-64
2022/07/29 03:33:54;;;;;;;3.77;2.17;;;16.80;99.90;;;;;;5112848;28;20638;-64
2022/07/29 03:36:21;;;;;;;2.17;1.60;;;16.80;99.90;;;;;;5112120;28;20740;-64
2022/07/29 03:38:49;;;;;;;3.47;1.93;;;16.90;99.90;;;;;;5112553;28;20211;-64
2022/07/29 03:41:19;;;;;;;5.37;1.80;;;16.90;99.90;;;;;;5112234;28;20230;-64
2022/07/29 03:43:48;;;;;;;6.00;3.03;;;16.90;99.90;;;;;;5112776;28;20203;-64
2022/07/29 03:46:17;;;;;;;4.27;2.27;;;16.80;99.90;;;;;;5111917;28;20709;-64
2022/07/29 03:48:49;;;;;;;4.83;1.93;;;16.70;99.90;;;;;;5112420;28;20261;-64
2022/07/29 03:51:16;;;;;;;5.00;1.60;;;16.50;99.90;;;;;;5112262;28;20284;-64
2022/07/29 03:53:43;;;;;;;6.63;1.83;;;16.50;99.90;;;;;;5112296;28;20211;-64
2022/07/29 03:56:12;;;;;;;5.97;1.80;;;16.60;99.90;;;;;;5112063;28;20228;-64
2022/07/29 03:58:40;;;;;;;4.37;2.13;;;16.60;99.90;;;;;;5112404;28;20211;-65
2022/07/29 04:01:06;;;;;;;10.37;4.00;;;16.50;99.90;;;;;;5112332;28;20578;-65
2022/07/29 04:03:34;;;;;;;8.60;1.90;;;16.50;99.90;;;;;;5112251;28;20256;-64
2022/07/29 04:06:02;;;;;;;4.97;1.80;;;16.50;99.90;;;;;;5111646;28;20280;-64
2022/07/29 04:08:29;;;;;;;5.10;1.37;;;16.50;99.90;;;;;;5112476;28;20242;-64
2022/07/29 04:10:56;;;;;;;2.47;1.60;;;16.50;99.90;;;;;;5112269;28;20272;-64
2022/07/29 04:13:24;;;;;;;5.50;1.63;;;16.60;99.90;;;;;;5112193;28;20204;-64
2022/07/29 04:15:51;;;;;;;4.33;1.80;;;16.50;99.90;;;;;;5111848;28;20203;-64
2022/07/29 04:18:17;;;;;;;3.37;1.40;;;16.40;99.90;;;;;;5114585;28;20276;-63
2022/07/29 04:20:44;;;;;;;6.60;1.60;;;16.50;99.90;;;;;;5113701;28;20235;-63
2022/07/29 04:23:10;;;;;;;4.43;1.70;;;16.50;99.90;;;;;;5115531;28;20207;-63
2022/07/29 04:25:41;;;;;;;4.33;1.83;;;16.50;99.90;;;;;;5115766;28;20238;-63
2022/07/29 04:28:08;;;;;;;2.70;1.47;;;16.40;99.90;;;;;;5115458;28;20625;-62
2022/07/29 04:30:37;;;;;;;3.87;1.73;;;16.50;99.90;;;;;;5115796;28;20228;-62
2022/07/29 04:33:06;;;;;;;5.47;1.80;;;16.40;99.90;;;;;;5115503;28;20764;-62
2022/07/29 04:35:37;;;;;;;6.10;1.93;;;16.30;99.90;;;;;;5115997;28;20200;-62
2022/07/29 04:38:03;;;;;;;4.43;1.60;;;16.40;99.90;;;;;;5115130;28;20708;-62
2022/07/29 04:40:32;;;;;;;4.60;1.50;;;16.30;99.90;;;;;;5115949;28;20232;-62
2022/07/29 04:42:59;;;;;;;4.13;1.60;;;16.20;99.90;;;;;;5115681;28;20302;-62
2022/07/29 04:45:26;;;;;;;4.93;1.53;;;16.10;99.90;;;;;;5115713;28;20219;-62
2022/07/29 04:47:54;;;;;;;2.33;1.57;;;16.10;99.90;;;;;;5115568;28;20207;-62
2022/07/29 04:50:21;;;;;;;7.37;1.60;;;16.10;99.90;;;;;;5115567;28;20223;-62
2022/07/29 04:52:48;;;;;;;5.37;1.63;;;16.10;99.90;;;;;;5115261;28;20217;-62
2022/07/29 04:55:15;;;;;;;3.97;1.60;;;16.10;99.90;;;;;;5115453;28;20308;-62
2022/07/29 04:57:41;;;;;;;7.03;1.80;;;16.10;99.90;;;;;;5115142;28;20674;-64
2022/07/29 05:00:09;;;;;;;3.13;1.80;;;16.00;99.90;;;;;;5115013;28;20219;-63
2022/07/29 05:02:36;;;;;;;3.70;1.97;;;16.00;99.90;;;;;;5115599;28;20207;-63
2022/07/29 05:05:05;;;;;;;5.70;1.77;;;16.00;99.90;;;;;;5115092;27;20233;-63
2022/07/29 05:07:32;;;;;;;4.60;1.80;;;15.90;99.90;;;;;;5115358;28;20276;-63
2022/07/29 05:09:59;;;;;;;5.10;1.90;;;15.80;99.90;;;;;;5115114;28;20288;-63
2022/07/29 05:12:25;;;;;;;7.17;1.73;;;15.90;99.90;;;;;;5114866;28;20662;-64
2022/07/29 05:14:52;;;;;;;4.67;1.73;;;16.00;99.90;;;;;;5115013;28;20249;-65
2022/07/29 05:17:19;;;;;;;7.03;1.73;;;16.10;99.90;;;;;;5114590;28;20268;-66
2022/07/29 05:19:46;;;;;;;6.10;2.83;;;16.20;99.90;;;;;;5114712;28;20262;-68
2022/07/29 05:22:14;;;;;;;5.20;2.10;;;16.20;99.90;;;;;;5114490;28;20614;-67
2022/07/29 05:24:40;;;;;;;5.23;2.00;;;16.30;99.90;;;;;;5114917;28;20248;-65
2022/07/29 05:27:07;;;;;;;5.07;2.20;;;16.20;99.90;;;;;;5114077;28;20277;-65
2022/07/29 05:29:34;;;;;;;2.80;1.63;;;16.30;99.90;;;;;;5113341;28;20228;-66
2022/07/29 05:32:00;;;;;;;5.40;1.63;;;16.30;99.90;;;;;;5114775;28;20245;-66
2022/07/29 05:34:27;;;;;;;4.50;1.90;;;16.30;99.90;;;;;;5114684;28;20200;-65
2022/07/29 05:36:54;;;;;;;4.37;2.00;;;16.20;99.90;;;;;;5114328;28;20249;-65
2022/07/29 05:39:22;;;;;;;4.03;2.00;;;16.20;99.90;;;;;;5114281;28;20256;-65
2022/07/29 05:41:48;;;;;;;2.77;1.90;;;16.20;99.90;;;;;;5114254;28;20399;-65
2022/07/29 05:44:15;;;;;;;3.60;2.23;;;16.30;99.90;;;;;;5114125;28;20670;-64
2022/07/29 05:46:42;;;;;;;8.20;2.30;;;16.30;99.90;;;;;;5113955;28;20223;-64
2022/07/29 05:49:09;;;;;;;3.57;2.40;;;16.20;99.90;;;;;;5114135;28;20641;-64
2022/07/29 05:51:35;;;;;;;6.17;1.83;;;16.30;99.90;;;;;;5113856;27;20718;-65
2022/07/29 05:54:02;;;;;;;4.70;2.27;;;16.40;99.90;;;;;;5113820;28;20203;-64
2022/07/29 05:56:30;;;;;;;4.30;1.80;;;16.30;99.90;;;;;;5113563;28;20210;-65
2022/07/29 05:58:57;;;;;;;3.87;2.30;;;16.20;99.90;;;;;;5113914;28;20199;-65
2022/07/29 06:01:23;;;;;;;5.20;2.90;;;16.20;99.90;;;;;;5113855;28;20736;-65
2022/07/29 06:03:50;;;;;;;6.63;1.93;;;16.20;99.90;;;;;;5113976;28;20252;-65
2022/07/29 06:06:17;;;;;;;4.30;2.20;;;16.30;99.90;;;;;;5113307;28;20216;-65
2022/07/29 06:08:44;;;;;;;4.77;2.13;;;16.30;99.90;;;;;;5113893;28;20204;-65
2022/07/29 06:11:10;;;;;;;6.67;2.20;;;16.40;99.90;;;;;;5113263;28;20227;-66
2022/07/29 06:13:38;;;;;;;4.77;2.43;;;16.60;99.90;;;;;;5113534;28;20207;-69
2022/07/29 06:16:05;;;;;;;8.03;2.63;;;16.70;99.90;;;;;;5113243;28;20207;-67
2022/07/29 06:18:32;;;;;;;3.60;2.20;;;16.80;99.90;;;;;;5113612;28;20211;-66
2022/07/29 06:20:59;;;;;;;5.20;1.83;;;16.80;99.90;;;;;;5113360;28;20227;-65
2022/07/29 06:23:26;;;;;;;7.17;2.57;;;16.70;99.90;;;;;;5115724;28;20686;-65
2022/07/29 06:25:52;;;;;;;3.70;2.00;;;16.80;99.90;;;;;;5116389;28;20223;-66
2022/07/29 06:28:19;;;;;;;3.40;2.07;;;16.90;99.90;;;;;;5116638;28;20207;-68
2022/07/29 06:30:47;;;;;;;8.03;2.47;;;16.80;99.90;;;;;;5115081;28;20367;-65
2022/07/29 06:33:18;;;;;;;4.47;2.13;;;16.80;99.90;;;;;;5113405;28;20692;-67
2022/07/29 06:35:46;;;;;;;7.10;2.53;;;16.90;99.90;;;;;;5113236;28;20204;-66
2022/07/29 06:38:13;;;;;;;4.20;2.63;;;16.90;99.90;;;;;;5112545;28;20613;-67
2022/07/29 06:43:26;;;;;;;7.20;2.63;;;17.00;99.90;;;;;;5112948;28;20206;-67
2022/07/29 06:45:54;;;;;;;3.77;2.50;;;17.10;99.90;;;;;;5112718;28;20219;-67
2022/07/29 06:48:21;;;;;;;11.30;2.50;;;17.20;99.90;;;;;;5112847;27;20257;-68
2022/07/29 06:50:48;;;;;;;8.83;2.33;;;17.20;99.90;;;;;;5098758;28;21061;-67
2022/07/29 06:53:15;;;;;;;5.20;2.20;;;17.30;99.90;;;;;;5110168;28;20204;-65
2022/07/29 06:55:42;;;;;;;7.07;2.63;;;17.30;99.90;;;;;;5111966;28;20200;-66
2022/07/29 06:58:08;;;;;;;5.80;2.53;;;17.40;99.90;;;;;;5112052;28;20749;-66
2022/07/29 07:00:35;;;;;;;7.50;2.30;;;17.50;99.90;;;;;;5112260;28;20245;-66
2022/07/29 07:03:04;;;;;;;7.53;2.50;;;17.50;99.90;;;;;;5112182;28;20199;-65
2022/07/29 07:05:30;;;;;;;5.80;2.60;;;17.70;99.90;;;;;;5112121;28;20208;-69
2022/07/29 07:07:57;;;;;;;9.50;2.90;;;17.80;99.90;;;;;;5112591;28;20207;-65
2022/07/29 07:10:24;;;;;;;7.13;2.87;;;17.90;99.90;;;;;;5111950;28;20227;-66
2022/07/29 07:12:51;;;;;;;8.93;2.97;;;18.00;99.90;;;;;;5112040;28;20626;-67
2022/07/29 07:15:21;;;;;;;4.13;1.90;;;18.20;99.90;;;;;;5111955;28;20204;-68
2022/07/29 07:17:48;;;;;;;3.77;2.60;;;18.40;99.90;;;;;;5112208;28;20239;-66
2022/07/29 07:20:16;;;;;;;6.73;2.50;;;18.50;99.90;;;;;;5112013;28;20235;-68
2022/07/29 07:22:43;;;;;;;5.33;2.37;;;18.70;99.90;;;;;;5111521;28;20210;-67
2022/07/29 07:25:10;;;;;;;3.87;2.20;;;18.80;99.90;;;;;;5112110;28;20268;-68
2022/07/29 07:27:37;;;;;;;6.07;2.10;;;18.90;99.90;;;;;;5111099;28;20983;-67
2022/07/29 07:30:06;;;;;;;8.47;2.60;;;19.00;99.90;;;;;;5111594;28;20219;-66
2022/07/29 07:32:33;;;;;;;5.70;2.20;;;19.10;99.90;;;;;;5111073;28;20292;-67
2022/07/29 07:34:59;;;;;;;5.90;2.13;;;19.20;99.90;;;;;;5111524;28;20203;-66
2022/07/29 07:37:28;;;;;;;8.67;4.43;;;19.40;99.90;;;;;;5110656;28;20253;-66
2022/07/29 07:39:55;;;;;;;6.63;2.53;;;19.40;99.90;;;;;;5111848;28;20227;-66
2022/07/29 07:42:21;;;;;;;4.37;2.13;;;19.40;99.90;;;;;;5111569;28;20638;-66
2022/07/29 07:44:49;;;;;;;6.87;2.30;;;19.60;99.90;;;;;;5111783;28;20256;-69
2022/07/29 07:47:19;;;;;;;6.80;2.10;;;19.40;99.90;;;;;;5111493;28;20852;-67
2022/07/29 07:49:46;;;;;;;4.40;1.70;;;19.40;99.90;;;;;;5111095;28;20227;-67
2022/07/29 07:52:12;;;;;;;3.40;2.07;;;19.30;99.90;;;;;;5110797;28;20199;-66
2022/07/29 07:54:40;;;;;;;4.63;2.00;;;19.40;99.90;;;;;;5111449;28;20211;-67
2022/07/29 07:57:08;;;;;;;4.30;1.97;;;19.30;99.90;;;;;;5111331;28;20252;-66
2022/07/29 07:59:34;;;;;;;5.17;1.80;;;19.20;99.90;;;;;;5111007;28;20774;-68
2022/07/29 08:02:01;;;;;;;6.23;2.10;;;19.30;99.90;;;;;;5111201;28;20211;-67
2022/07/29 08:04:28;;;;;;;5.80;2.10;;;19.30;99.90;;;;;;5111708;28;20253;-66
2022/07/29 08:06:55;;;;;;;4.40;1.90;;;19.30;99.90;;;;;;5111020;28;20224;-66
2022/07/29 08:09:22;;;;;;;5.30;2.47;;;19.10;99.90;;;;;;5111530;28;20256;-70
2022/07/29 08:11:50;;;;;;;3.47;2.00;;;19.10;99.90;;;;;;5110818;28;20215;-68
2022/07/29 08:14:17;;;;;;;8.07;2.67;;;19.10;99.90;;;;;;5111542;28;20218;-66
2022/07/29 08:16:44;;;;;;;4.77;2.10;;;19.20;99.90;;;;;;5110949;28;20252;-67
2022/07/29 08:19:10;;;;;;;5.00;2.27;;;19.10;99.90;;;;;;5111578;28;20756;-66
2022/07/29 08:21:38;;;;;;;7.20;2.10;;;19.10;99.90;;;;;;5111123;28;20227;-66
2022/07/29 08:26:51;;;;;;;4.97;2.60;;;19.60;99.90;;;;;;5110915;28;20219;-65
2022/07/29 08:29:18;;;;;;;3.70;2.30;;;19.60;99.90;;;;;;5110928;28;20207;-66
2022/07/29 08:31:45;;;;;;;5.33;2.40;;;19.80;99.90;;;;;;5110970;28;20210;-66
2022/07/29 08:34:12;;;;;;;6.67;2.43;;;19.80;99.90;;;;;;5111024;28;20256;-65
2022/07/29 08:36:39;;;;;;;4.50;2.30;;;19.70;99.90;;;;;;5110984;28;20303;-65
2022/07/29 08:39:06;;;;;;;7.40;2.43;;;19.80;99.90;;;;;;5111014;28;20670;-65
2022/07/29 08:41:32;;;;;;;9.57;2.50;;;19.70;99.90;;;;;;5111094;28;20227;-67
2022/07/29 08:44:00;;;;;;;6.17;2.50;;;19.70;99.90;;;;;;5111203;28;20203;-65
2022/07/29 08:46:27;;;;;;;6.77;2.20;;;19.40;99.90;;;;;;5110488;28;20770;-65
2022/07/29 08:48:55;;;;;;;5.57;2.60;;;19.30;99.90;;;;;;5111136;28;20207;-65
2022/07/29 08:51:22;;;;;;;7.83;2.80;;;19.30;99.90;;;;;;5110731;28;20272;-70
2022/07/29 08:53:50;;;;;;;8.17;2.40;;;19.10;99.90;;;;;;5110575;28;20871;-69
2022/07/29 08:56:18;;;;;;;6.27;2.27;;;19.00;99.90;;;;;;5110666;28;20204;-68
2022/07/29 08:58:46;;;;;;;4.33;2.70;;;18.80;99.90;;;;;;5111050;28;20725;-69
2022/07/29 09:01:18;;;;;;;8.57;2.77;;;18.80;99.90;;;;;;5111187;28;20257;-68
2022/07/29 09:03:46;;;;;;;8.73;2.73;;;18.80;99.90;;;;;;5112069;28;20628;-68
2022/07/29 09:06:14;;;;;;;4.63;2.47;;;18.90;99.90;;;;;;5114140;27;20628;-65
2022/07/29 09:08:41;;;;;;;5.53;2.47;;;19.00;99.90;;;;;;5114341;28;20257;-67
2022/07/29 09:11:09;;;;;;;4.77;2.30;;;19.20;99.90;;;;;;5114670;28;20314;-70
2022/07/29 09:13:36;;;;;;;7.87;2.37;;;19.30;99.90;;;;;;5114147;28;20241;-71
2022/07/29 09:16:03;;;;;;;8.07;2.50;;;19.30;99.90;;;;;;5114289;28;20626;-66
2022/07/29 09:18:38;;;;;;;6.50;2.60;;;19.20;99.90;;;;;;5113908;28;20264;-64
2022/07/29 09:24:06;;;;;;;7.43;3.00;;;19.40;99.90;;;;;;5113992;28;20203;-67
2022/07/29 09:26:34;;;;;;;5.93;2.70;;;19.40;99.90;;;;;;5113735;28;20219;-68
2022/07/29 09:29:09;;;;;;;8.00;2.87;;;19.40;99.90;;;;;;5115130;28;20203;-67
2022/07/29 09:31:36;;;;;;;6.83;2.80;;;19.20;99.90;;;;;;5114596;28;20220;-68
2022/07/29 09:34:05;;;;;;;8.67;3.00;;;19.20;99.90;;;;;;5115449;27;20252;-67
2022/07/29 09:36:39;;;;;;;8.23;2.90;;;19.20;99.90;;;;;;5112101;28;20203;-66
2022/07/29 09:39:06;;;;;;;10.17;3.30;;;19.10;99.90;;;;;;5114096;28;20302;-66
2022/07/29 09:41:49;;;;;;;3.97;3.17;;;19.00;99.90;;;;;;5114800;28;20273;-66
2022/07/29 09:44:16;;;;;;;6.10;3.43;;;18.80;99.90;;;;;;5114622;28;20203;-65
2022/07/29 09:46:57;;;;;;;7.40;3.23;;;18.60;99.90;;;;;;5113513;28;20224;-63
2022/07/29 09:49:25;;;;;;;10.47;3.30;;;18.40;99.90;;;;;;5113631;28;20229;-64
2022/07/29 09:52:04;;;;;;;10.10;3.80;;;18.30;99.90;;;;;;5113319;28;20218;-67
2022/07/29 09:54:36;;;;;;;9.87;3.53;;;18.10;99.90;;;;;;5113713;28;20203;-64
2022/07/29 09:57:03;;;;;;;7.10;3.57;;;18.10;99.90;;;;;;5113476;28;20196;-63
2022/07/29 09:59:30;;;;;;;7.80;3.80;;;18.10;99.90;;;;;;5113291;28;20253;-66
2022/07/29 10:01:57;;;;;;;7.13;3.10;;;18.10;99.90;;;;;;5114096;28;20265;-64
2022/07/29 10:04:38;;;;;;;6.27;4.00;;;18.30;99.90;;;;;;5114712;28;20253;-67
2022/07/29 10:07:05;;;;;;;10.70;4.63;;;18.40;99.90;;;;;;5116760;28;20230;-65
2022/07/29 10:09:33;;;;;;;8.53;4.77;;;18.40;99.90;;;;;;5115658;28;20239;-64
2022/07/29 10:12:10;;;;;;;7.80;4.20;;;18.40;99.90;;;;;;5114064;28;20280;-66
2022/07/29 10:14:38;;;;;;;7.20;4.30;;;18.00;99.90;;;;;;5113750;28;20589;-66
2022/07/29 10:17:06;;;;;;;6.33;3.97;;;18.10;99.90;;;;;;5112854;28;20988;-68
2022/07/29 10:19:36;;;;;;;9.73;3.80;;;18.10;99.90;;;;;;5113049;28;20235;-67
2022/07/29 10:22:07;;;;;;;6.73;3.57;;;18.10;99.90;;;;;;5112594;28;20211;-66
2022/07/29 10:24:35;;;;;;;7.90;3.10;;;18.20;99.90;;;;;;5112754;27;20237;-67
2022/07/29 10:27:03;;;;;;;4.90;3.20;;;18.40;99.90;;;;;;5112461;28;20230;-68
2022/07/29 10:29:32;;;;;;;8.00;3.50;;;18.40;99.90;;;;;;5112904;28;20681;-65
2022/07/29 10:32:17;;;;;;;6.53;3.73;;;18.50;99.90;;;;;;5112585;28;20299;-65
2022/07/29 10:34:58;;;;;;;7.73;3.63;;;18.40;99.90;;;;;;5112711;28;20203;-67
2022/07/29 10:37:38;;;;;;;5.63;3.37;;;18.50;99.90;;;;;;5112405;28;20569;-66
2022/07/29 10:43:15;;;;;;;6.13;3.63;;;18.60;99.90;;;;;;5112090;28;20279;-65
2022/07/29 10:45:41;;;;;;;8.30;4.00;;;18.50;99.90;;;;;;5111053;28;20204;-65
2022/07/29 10:48:09;;;;;;;6.73;3.90;;;18.30;99.90;;;;;;5111191;28;20758;-64
2022/07/29 10:50:56;;;;;;;7.47;4.37;;;18.30;99.90;;;;;;5112513;28;20223;-68
2022/07/29 10:53:23;;;;;;;6.97;3.60;;;18.30;99.90;;;;;;5112004;28;20211;-65
2022/07/29 10:55:52;;;;;;;10.67;3.80;;;18.30;99.90;;;;;;5112390;28;20212;-66
2022/07/29 10:58:20;;;;;;;6.13;4.33;;;18.30;99.90;;;;;;5112203;28;20678;-65
2022/07/29 11:00:48;;;;;;;7.30;4.20;;;18.40;99.90;;;;;;5111893;28;20227;-69
2022/07/29 11:03:46;;;;;;;6.13;3.93;;;18.40;99.90;;;;;;5112120;28;20208;-68
2022/07/29 11:06:14;;;;;;;8.53;4.00;;;18.50;99.90;;;;;;5111146;27;20728;-68
2022/07/29 11:08:41;;;;;;;11.53;4.50;;;18.50;99.90;;;;;;5112221;28;20653;-67
2022/07/29 11:11:33;;;;;;;7.30;4.43;;;18.50;99.90;;;;;;5111829;28;20427;-69
2022/07/29 11:13:59;;;;;;;7.23;3.87;;;18.60;99.90;;;;;;5096886;28;20215;-66
2022/07/29 11:16:26;;;;;;;10.13;4.93;;;18.50;1.00;;;;;;5111735;28;20665;-65
2022/07/29 11:19:21;;;;;;;8.00;4.10;;;18.50;1.00;;;;;;5112055;28;20281;-65
2022/07/29 11:21:51;;;;;;;8.93;4.23;;;18.60;99.90;;;;;;5111729;28;20239;-66
2022/07/29 11:24:23;;;;;;;7.23;4.20;;;18.70;99.90;;;;;;5111804;28;20662;-65
2022/07/29 11:27:08;;;;;;;9.87;4.50;;;18.80;99.90;;;;;;5110828;28;20207;-66
2022/07/29 11:29:39;;;;;;;7.80;4.47;;;18.70;99.90;;;;;;5111525;28;20230;-69
2022/07/29 11:32:10;;;;;;;11.43;4.80;;;18.60;1.00;;;;;;5111772;28;20207;-67
2022/07/29 11:34:40;;;;;;;9.77;4.30;;;18.70;1.00;;;;;;5111463;28;20203;-68
2022/07/29 11:37:26;;;;;;;7.90;4.53;;;18.70;1.00;;;;;;5111655;28;20235;-67
2022/07/29 11:40:13;;;;;;;8.03;4.10;;;18.70;1.00;;;;;;5110099;28;20584;-67
2022/07/29 11:42:41;;;;;;;7.10;4.27;;;18.80;1.00;;;;;;5111604;28;20585;-67
2022/07/29 11:45:10;;;;;;;7.67;4.60;;;18.90;1.00;;;;;;5111478;28;20298;-67
2022/07/29 11:47:38;;;;;;;8.20;4.60;;;19.00;1.00;;;;;;5111275;28;20283;-68
2022/07/29 11:50:07;;;;;;;8.07;4.40;;;19.20;1.00;;;;;;5111479;28;20368;-67
2022/07/29 11:52:42;;;;;;;10.67;4.27;;;19.30;99.90;;;;;;5111240;28;20199;-66
2022/07/29 11:55:11;;;;;;;11.07;4.17;;;19.40;99.90;;;;;;5111991;28;20238;-68
2022/07/29 11:57:38;;;;;;;6.87;4.03;;;19.40;99.90;;;;;;5111032;28;20231;-66
2022/07/29 12:00:09;;;;;;;6.90;3.97;;;19.30;99.90;;;;;;5111766;28;20223;-67
2022/07/29 12:02:43;;;;;;;7.60;3.93;;;19.50;99.90;;;;;;5110895;28;20203;-66
2022/07/29 12:05:11;;;;;;;7.17;4.93;;;19.80;99.90;;;;;;5111411;28;20211;-66
2022/07/29 12:07:40;;;;;;;6.87;3.90;;;20.10;99.90;;;;;;5111068;28;20314;-65
2022/07/29 12:10:09;;;;;;;8.00;3.87;;;20.20;99.90;;;;;;5111427;28;20725;-66
2022/07/29 12:12:36;;;;;;;6.97;4.10;;;20.30;99.90;;;;;;5110556;28;20208;-65
2022/07/29 12:15:13;;;;;;;8.50;4.23;;;20.20;99.90;;;;;;5111452;28;20682;-66
2022/07/29 12:17:40;;;;;;;7.53;4.07;;;20.50;99.90;;;;;;5111063;28;20206;-65
2022/07/29 12:20:07;;;;;;;9.87;4.47;;;20.60;99.90;;;;;;5110975;28;20247;-66
2022/07/29 12:22:36;;;;;;;12.97;4.47;;;20.60;99.90;;;;;;5111558;28;20211;-66
2022/07/29 12:25:07;;;;;;;4.33;3.07;;;20.40;99.90;;;;;;5111391;28;20738;-66
2022/07/29 12:27:33;;;;;;;5.47;3.40;;;20.60;99.90;;;;;;5110907;28;20223;-65
2022/07/29 12:30:02;;;;;;;5.33;2.93;;;20.50;99.90;;;;;;5111013;28;20227;-66
2022/07/29 12:32:33;;;;;;;5.23;3.67;;;20.40;99.90;;;;;;5110653;28;20295;-68
2022/07/29 12:35:00;;;;;;;11.00;4.27;;;20.40;99.90;;;;;;5111096;28;20212;-67
2022/07/29 12:37:27;;;;;;;7.20;3.40;;;20.40;99.90;;;;;;5110974;28;20204;-67
2022/07/29 12:39:54;;;;;;;4.47;2.50;;;20.70;99.90;;;;;;5114506;28;20220;-65
2022/07/29 12:42:22;;;;;;;7.23;2.80;;;20.90;99.90;;;;;;5114757;28;20207;-64
2022/07/29 12:44:57;;;;;;;6.00;2.67;;;21.40;99.90;;;;;;5115153;28;20231;-65
2022/07/29 12:47:25;;;;;;;6.20;3.00;;;21.70;99.90;;;;;;5114673;28;20187;-65
2022/07/29 12:50:07;;;;;;;6.80;3.00;;;21.90;99.90;;;;;;5115251;28;20245;-65
2022/07/29 12:52:35;;;;;;;6.33;3.30;;;22.10;99.90;;;;;;5114607;28;20260;-65
2022/07/29 12:55:02;;;;;;;4.03;2.70;;;22.20;99.90;;;;;;5114897;28;20594;-66
2022/07/29 12:57:31;;;;;;;7.67;3.60;;;22.00;99.90;;;;;;5114878;28;20256;-66
2022/07/29 13:00:10;;;;;;;6.97;3.23;;;21.80;99.90;;;;;;5114907;28;20677;-64
2022/07/29 13:02:38;;;;;;;6.13;3.13;;;21.70;99.90;;;;;;5113996;28;20210;-65
2022/07/29 13:05:06;;;;;;;5.63;2.87;;;21.70;99.90;;;;;;5114738;28;20204;-65
2022/07/29 13:07:35;;;;;;;5.03;3.23;;;22.00;99.90;;;;;;5114578;28;20203;-64